LS Concorde — ZDHJ7 — position and weather

sailwx.info

Track history (hours):
 
Tides and Currents Weather Stations Pressure Air Temp Water Temp Dewpoint Dewpoint Depression Visibility Wind Speed Wind Dir Waves Ship Positions

LS Concorde

Last reported at 2015-May-06 03:33 UTC. Time now 2015-May-06 04:25 UTC.
Position N 51°31' E 000°33'.

Length 99 m; draft 5.1 m.

Type: Tanker. MMSI: 236329000.

Date/timePositionNaut miles runAvg speedWind from/ knotsBaromVisibWave heightAir tempDewpointWater temp
2015-May-06 03:33N 51°31' E 000°33'0 0.0
2015-May-06 02:33N 51°31' E 000°33'0 0.0
2015-May-06 01:33N 51°31' E 000°33'0 0.0
2015-May-06 00:33N 51°31' E 000°33'0 0.0
2015-May-05 23:33N 51°31' E 000°33'0 0.0
2015-May-05 22:33N 51°31' E 000°33'0 0.0
2015-May-05 21:33N 51°31' E 000°33'0 0.0
2015-May-05 20:33N 51°31' E 000°33'0 0.0
2015-May-05 19:33N 51°31' E 000°33'1 0.7
2015-May-05 18:33N 51°30' E 000°34'8 8.2
2015-May-05 17:34N 51°30' E 000°47'8 7.9
2015-May-05 16:33N 51°30' E 001°00'8 7.5
2015-May-05 15:33N 51°29' E 001°12'8 8.0
2015-May-05 14:33N 51°28' E 001°25'3 2.7
2015-May-05 13:34N 51°30' E 001°28'0 0.1
2015-May-05 12:33N 51°30' E 001°28'0 0.1
2015-May-05 11:33N 51°30' E 001°28'0 0.1
2015-May-05 10:33N 51°30' E 001°28'0 0.0
2015-May-05 09:33N 51°30' E 001°28'1 1.1
2015-May-05 08:33N 51°30' E 001°30'0 0.3
2015-May-05 07:33N 51°30' E 001°30'0 0.0
2015-May-05 06:33N 51°30' E 001°30'0 0.0
2015-May-05 05:33N 51°30' E 001°30'1 1.2
2015-May-05 04:33N 51°30' E 001°29'0 0.0
2015-May-05 03:33N 51°30' E 001°29'0 0.0
2015-May-05 02:33N 51°30' E 001°29'0 0.1
2015-May-05 01:33N 51°30' E 001°28'0 0.0
2015-May-05 00:33N 51°30' E 001°28'0 0.0
2015-May-04 23:33N 51°30' E 001°28'0 0.0
2015-May-04 22:33N 51°30' E 001°28'0 0.0
2015-May-04 21:33N 51°30' E 001°28'0 0.0
2015-May-04 20:33N 51°30' E 001°28'0 0.0
2015-May-04 19:34N 51°30' E 001°28'0 0.0
2015-May-04 18:33N 51°30' E 001°28'0 0.1
2015-May-04 17:33N 51°30' E 001°29'0 0.0
2015-May-04 16:33N 51°30' E 001°29'0 0.0
2015-May-04 15:30N 51°30' E 001°29'0 0.0
2015-May-04 14:33N 51°30' E 001°29'0 0.1
2015-May-04 13:33N 51°30' E 001°28'0 0.0
2015-May-04 12:33N 51°30' E 001°28'0 0.1
2015-May-04 11:33N 51°30' E 001°28'0 0.0
2015-May-04 10:33N 51°30' E 001°28'0 0.0
2015-May-04 09:33N 51°30' E 001°28'0 0.0
2015-May-04 08:30N 51°30' E 001°28'0 0.1
2015-May-04 07:33N 51°30' E 001°28'0 0.1
2015-May-04 06:33N 51°30' E 001°29'0 0.0
2015-May-04 05:30N 51°30' E 001°29'0 0.0
2015-May-04 04:33N 51°30' E 001°29'0 0.0
2015-May-04 03:33N 51°30' E 001°29'0 0.0
2015-May-04 02:33N 51°30' E 001°29'0 0.0
2015-May-04 01:34N 51°30' E 001°29'0 0.1
2015-May-04 00:33N 51°30' E 001°28'0 0.1
2015-May-03 23:33N 51°30' E 001°28'0 0.0
2015-May-03 22:34N 51°30' E 001°28'0 0.0
2015-May-03 21:34N 51°30' E 001°28'0 0.0
2015-May-03 20:34N 51°30' E 001°28'0 0.1
2015-May-03 19:34N 51°30' E 001°29'0 0.1
2015-May-03 18:34N 51°30' E 001°29'0 0.0
2015-May-03 17:33N 51°30' E 001°29'0 0.0
2015-May-03 16:33N 51°30' E 001°29'2 1.7
2015-May-03 15:34N 51°30' E 001°31'0 0.0
2015-May-03 14:33N 51°30' E 001°31'0 0.0
2015-May-03 13:34N 51°30' E 001°31'0 0.1
2015-May-03 12:33N 51°30' E 001°31'0 0.1
2015-May-03 11:34N 51°30' E 001°31'3 2.8
2015-May-03 10:33N 51°30' E 001°36'1111.1
2015-May-03 09:34N 51°30' E 001°53'1111.2
2015-May-03 08:33N 51°22' E 002°07'8 7.9
2015-May-03 07:32N 51°15' E 002°04'8 7.8
2015-May-03 06:34N 51°10' E 001°54'8 7.7
2015-May-03 05:33N 51°05' E 001°45'7 6.9
2015-May-03 04:33N 50°58' E 001°46'4 3.8
2015-May-03 03:32N 50°58' E 001°52'0 0.0
2015-May-03 02:32N 50°58' E 001°52'0 0.0
2015-May-03 00:20N 50°58' E 001°52'0 0.0
2015-May-02 23:29N 50°58' E 001°52'0 0.0
2015-May-02 22:33N 50°58' E 001°52'0 0.3
2015-May-02 21:33N 50°58' E 001°51'0 0.0
2015-May-02 20:33N 50°58' E 001°51'0 0.3
2015-May-02 19:32N 50°58' E 001°52'0 0.4
2015-May-02 18:34N 50°58' E 001°51'5 5.3
2015-May-02 17:33N 51°01' E 001°44'2 1.6
2015-May-02 16:34N 51°02' E 001°42'7 7.3
2015-May-02 15:33N 50°57' E 001°34'8 8.0
2015-May-02 14:33N 50°50' E 001°28'80 8.0
2015-May-02 04:32N 50°33' W 000°36'9 9.5
2015-May-02 03:34N 50°39' W 000°48'1010.2
2015-May-02 02:33N 50°43' W 001°02'1010.3
2015-May-02 01:34N 50°47' W 001°17'8 7.5
2015-May-02 00:32N 50°53' W 001°24'0 0.0
2015-May-01 23:32N 50°53' W 001°24'0 0.0
2015-May-01 22:32N 50°53' W 001°24'0 0.0
2015-May-01 21:31N 50°53' W 001°24'0 0.0
2015-May-01 20:33N 50°53' W 001°24'4 4.5
2015-May-01 19:33N 50°50' W 001°19'8 8.4
2015-May-01 18:33N 50°45' W 001°08'7 6.6
2015-May-01 17:33N 50°42' W 000°58'5 5.0
2015-May-01 16:33N 50°39' W 000°52'6 6.2
2015-May-01 15:33N 50°38' W 000°43'5 4.8
2015-May-01 14:33N 50°38' W 000°35'6 5.6
2015-May-01 13:33N 50°38' W 000°26'6 6.0
2015-May-01 12:33N 50°38' W 000°17'12 6.2
2015-May-01 10:33N 50°39' E 000°03'7 7.1
2015-May-01 09:33N 50°38' E 000°14'10 9.6
2015-May-01 08:33N 50°39' E 000°29'9 8.7
2015-May-01 07:34N 50°42' E 000°42'10 9.5
2015-May-01 06:33N 50°47' E 000°55'1210.7
2015-May-01 05:28N 50°55' E 001°09'1112.0
2015-May-01 04:34N 51°02' E 001°22'1212.1
2015-May-01 03:33N 51°11' E 001°35'1010.3
2015-May-01 02:33N 51°21' E 001°36'1010.2
2015-May-01 01:33N 51°31' E 001°32'0 0.4
2015-May-01 00:33N 51°32' E 001°31'0 0.0
2015-Apr-30 23:33N 51°32' E 001°31'0 0.1
2015-Apr-30 22:33N 51°32' E 001°31'2 2.0
2015-Apr-30 21:33N 51°30' E 001°29'0 0.0
2015-Apr-30 20:33N 51°30' E 001°29'0 0.0
2015-Apr-30 19:33N 51°30' E 001°29'0 0.0
2015-Apr-30 18:33N 51°30' E 001°29'0 0.0
2015-Apr-30 17:33N 51°30' E 001°29'0 0.0
2015-Apr-30 16:33N 51°30' E 001°29'0 0.0
2015-Apr-30 15:33N 51°30' E 001°29'0 0.0
2015-Apr-30 14:33N 51°30' E 001°29'0 0.0
2015-Apr-30 13:33N 51°30' E 001°29'0 0.0
2015-Apr-30 12:33N 51°30' E 001°29'5 4.8
2015-Apr-30 11:33N 51°28' E 001°22'1312.5
2015-Apr-30 10:33N 51°29' E 001°01'1111.4
2015-Apr-30 09:33N 51°30' E 000°43'6 6.3
2015-Apr-30 08:33N 51°31' E 000°33'0 0.0
2015-Apr-30 07:33N 51°31' E 000°33'0 0.0
2015-Apr-30 06:33N 51°31' E 000°33'0 0.0
2015-Apr-30 05:33N 51°31' E 000°33'0 0.0
2015-Apr-30 04:30N 51°31' E 000°33'0 0.0
2015-Apr-30 03:33N 51°31' E 000°33'0 0.0
2015-Apr-30 02:33N 51°31' E 000°33'0 0.0
2015-Apr-30 01:33N 51°31' E 000°33'0 0.0
2015-Apr-30 00:33N 51°31' E 000°33'0 0.0
2015-Apr-29 23:33N 51°31' E 000°33'0 0.0
2015-Apr-29 22:33N 51°31' E 000°33'0 0.0
2015-Apr-29 21:33N 51°31' E 000°33'0 0.0
2015-Apr-29 20:33N 51°31' E 000°33'0 0.0
2015-Apr-29 19:33N 51°31' E 000°33'0 0.0
2015-Apr-29 18:33N 51°31' E 000°33'0 0.0
2015-Apr-29 17:33N 51°31' E 000°33'0 0.0
2015-Apr-29 16:33N 51°31' E 000°33'0 0.0
2015-Apr-29 15:33N 51°31' E 000°33'0 0.0
2015-Apr-29 14:33N 51°31' E 000°33'0 0.0
2015-Apr-29 13:33N 51°31' E 000°33'0 0.0
2015-Apr-29 12:33N 51°31' E 000°33'0 0.0
2015-Apr-29 11:33N 51°31' E 000°33'0 0.0
2015-Apr-29 10:33N 51°31' E 000°33'0 0.0
2015-Apr-29 09:33N 51°31' E 000°33'0 0.2
2015-Apr-29 08:33N 51°30' E 000°33'1010.1
2015-Apr-29 07:33N 51°30' E 000°50'1211.6
2015-Apr-29 06:31N 51°29' E 001°09'1212.3
2015-Apr-29 05:33N 51°27' E 001°28'3 2.7
2015-Apr-29 04:32N 51°30' E 001°28'0 0.1
2015-Apr-29 03:26N 51°30' E 001°28'0 0.0
2015-Apr-29 02:32N 51°30' E 001°28'0 0.0
2015-Apr-29 01:32N 51°30' E 001°28'0 0.0
2015-Apr-29 00:32N 51°30' E 001°28'0 0.0
2015-Apr-28 23:32N 51°30' E 001°28'1 1.0
2015-Apr-28 22:32N 51°31' E 001°30'0 0.0
2015-Apr-28 21:32N 51°31' E 001°30'1 0.7
2015-Apr-28 20:32N 51°31' E 001°31'0 0.0
2015-Apr-28 19:32N 51°31' E 001°31'0 0.0
2015-Apr-28 18:32N 51°31' E 001°31'0 0.2
2015-Apr-28 17:32N 51°30' E 001°30'0 0.1
2015-Apr-28 16:32N 51°30' E 001°31'0 0.1
2015-Apr-28 15:32N 51°30' E 001°31'0 0.1
2015-Apr-28 14:32N 51°31' E 001°31'0 0.0
2015-Apr-28 13:29N 51°31' E 001°31'0 0.0
2015-Apr-28 12:32N 51°31' E 001°31'1 0.9
2015-Apr-28 11:33N 51°30' E 001°30'1 0.7
2015-Apr-28 10:31N 51°30' E 001°28'0 0.0
2015-Apr-28 09:33N 51°30' E 001°28'0 0.0
2015-Apr-28 08:34N 51°30' E 001°28'0 0.0
2015-Apr-28 07:33N 51°30' E 001°28'0 0.1
2015-Apr-28 06:33N 51°30' E 001°28'0 0.1
2015-Apr-28 05:33N 51°30' E 001°28'0 0.1
2015-Apr-28 04:33N 51°30' E 001°28'0 0.0
2015-Apr-28 03:33N 51°30' E 001°28'0 0.0
2015-Apr-28 02:33N 51°30' E 001°28'0 0.0
2015-Apr-28 01:33N 51°30' E 001°28'0 0.0
2015-Apr-28 00:33N 51°30' E 001°28'0 0.0
2015-Apr-27 23:33N 51°30' E 001°28'0 0.0
2015-Apr-27 22:33N 51°30' E 001°28'0 0.0
2015-Apr-27 21:33N 51°30' E 001°28'0 0.0
2015-Apr-27 20:33N 51°30' E 001°28'0 0.1
2015-Apr-27 19:33N 51°30' E 001°28'0 0.0
2015-Apr-27 18:33N 51°30' E 001°28'0 0.0
2015-Apr-27 17:33N 51°30' E 001°28'0 0.0
2015-Apr-27 16:33N 51°30' E 001°28'0 0.0
2015-Apr-27 15:33N 51°30' E 001°28'0 0.0
2015-Apr-27 14:34N 51°30' E 001°28'0 0.0
2015-Apr-27 13:33N 51°30' E 001°28'0 0.0
2015-Apr-27 12:33N 51°30' E 001°28'0 0.0
2015-Apr-27 11:33N 51°30' E 001°28'0 0.0
2015-Apr-27 10:33N 51°30' E 001°28'0 0.0
2015-Apr-27 09:33N 51°30' E 001°28'0 0.0
2015-Apr-27 08:33N 51°30' E 001°28'0 0.0
2015-Apr-27 07:33N 51°30' E 001°28'0 0.0
2015-Apr-27 06:33N 51°30' E 001°28'0 0.0
2015-Apr-27 05:34N 51°30' E 001°28'0 0.0
2015-Apr-27 04:33N 51°30' E 001°28'0 0.0
2015-Apr-27 03:33N 51°30' E 001°28'0 0.0
2015-Apr-27 02:33N 51°30' E 001°28'0 0.0
2015-Apr-27 01:33N 51°30' E 001°28'0 0.0
2015-Apr-27 00:33N 51°30' E 001°28'0 0.0
2015-Apr-26 23:33N 51°30' E 001°28'0 0.0
2015-Apr-26 22:33N 51°30' E 001°28'0 0.0
2015-Apr-26 21:33N 51°30' E 001°28'0 0.0
2015-Apr-26 20:33N 51°30' E 001°28'0 0.1
2015-Apr-26 19:33N 51°30' E 001°28'0 0.1
2015-Apr-26 18:33N 51°30' E 001°28'0 0.0
2015-Apr-26 17:33N 51°30' E 001°28'0 0.0
2015-Apr-26 16:33N 51°30' E 001°28'0 0.0
2015-Apr-26 15:33N 51°30' E 001°28'0 0.0
2015-Apr-26 14:33N 51°30' E 001°28'0 0.0
2015-Apr-26 13:33N 51°30' E 001°28'0 0.1
2015-Apr-26 12:33N 51°30' E 001°28'1111.2
2015-Apr-26 11:33N 51°28' E 001°46'10 9.7
2015-Apr-26 10:30N 51°25' E 002°01'7 7.1
2015-Apr-26 09:34N 51°19' E 002°07'5 5.1
2015-Apr-26 08:33N 51°14' E 002°03'5 5.2
2015-Apr-26 07:33N 51°11' E 001°56'7 6.0
2015-Apr-26 06:25N 51°07' E 001°47'6 6.5
2015-Apr-26 05:33N 51°02' E 001°45'6 5.7
2015-Apr-26 04:31N 50°58' E 001°52'  
Track history (hours):
 
Tides and Currents Weather Stations Pressure Air Temp Water Temp Dewpoint Dewpoint Depression Visibility Wind Speed Wind Dir Waves Ship Positions

LS Concorde

Last reported at 2015-May-06 03:33 UTC. Time now 2015-May-06 04:25 UTC.
Position N 51°31' E 000°33'.

Length 99 m; draft 5.1 m.

Type: Tanker. MMSI: 236329000.

Date/timePositionNaut miles runAvg speedWind from/ knotsBaromVisibWave heightAir tempDewpointWater temp
2015-May-06 03:33N 51°31' E 000°33'0 0.0
2015-May-06 02:33N 51°31' E 000°33'0 0.0
2015-May-06 01:33N 51°31' E 000°33'0 0.0
2015-May-06 00:33N 51°31' E 000°33'0 0.0
2015-May-05 23:33N 51°31' E 000°33'0 0.0
2015-May-05 22:33N 51°31' E 000°33'0 0.0
2015-May-05 21:33N 51°31' E 000°33'0 0.0
2015-May-05 20:33N 51°31' E 000°33'0 0.0
2015-May-05 19:33N 51°31' E 000°33'1 0.7
2015-May-05 18:33N 51°30' E 000°34'8 8.2
2015-May-05 17:34N 51°30' E 000°47'8 7.9
2015-May-05 16:33N 51°30' E 001°00'8 7.5
2015-May-05 15:33N 51°29' E 001°12'8 8.0
2015-May-05 14:33N 51°28' E 001°25'3 2.7
2015-May-05 13:34N 51°30' E 001°28'0 0.1
2015-May-05 12:33N 51°30' E 001°28'0 0.1
2015-May-05 11:33N 51°30' E 001°28'0 0.1
2015-May-05 10:33N 51°30' E 001°28'0 0.0
2015-May-05 09:33N 51°30' E 001°28'1 1.1
2015-May-05 08:33N 51°30' E 001°30'0 0.3
2015-May-05 07:33N 51°30' E 001°30'0 0.0
2015-May-05 06:33N 51°30' E 001°30'0 0.0
2015-May-05 05:33N 51°30' E 001°30'1 1.2
2015-May-05 04:33N 51°30' E 001°29'0 0.0
2015-May-05 03:33N 51°30' E 001°29'0 0.0
2015-May-05 02:33N 51°30' E 001°29'0 0.1
2015-May-05 01:33N 51°30' E 001°28'0 0.0
2015-May-05 00:33N 51°30' E 001°28'0 0.0
2015-May-04 23:33N 51°30' E 001°28'0 0.0
2015-May-04 22:33N 51°30' E 001°28'0 0.0
2015-May-04 21:33N 51°30' E 001°28'0 0.0
2015-May-04 20:33N 51°30' E 001°28'0 0.0
2015-May-04 19:34N 51°30' E 001°28'0 0.0
2015-May-04 18:33N 51°30' E 001°28'0 0.1
2015-May-04 17:33N 51°30' E 001°29'0 0.0
2015-May-04 16:33N 51°30' E 001°29'0 0.0
2015-May-04 15:30N 51°30' E 001°29'0 0.0
2015-May-04 14:33N 51°30' E 001°29'0 0.1
2015-May-04 13:33N 51°30' E 001°28'0 0.0
2015-May-04 12:33N 51°30' E 001°28'0 0.1
2015-May-04 11:33N 51°30' E 001°28'0 0.0
2015-May-04 10:33N 51°30' E 001°28'0 0.0
2015-May-04 09:33N 51°30' E 001°28'0 0.0
2015-May-04 08:30N 51°30' E 001°28'0 0.1
2015-May-04 07:33N 51°30' E 001°28'0 0.1
2015-May-04 06:33N 51°30' E 001°29'0 0.0
2015-May-04 05:30N 51°30' E 001°29'0 0.0
2015-May-04 04:33N 51°30' E 001°29'0 0.0
2015-May-04 03:33N 51°30' E 001°29'0 0.0
2015-May-04 02:33N 51°30' E 001°29'0 0.0
2015-May-04 01:34N 51°30' E 001°29'0 0.1
2015-May-04 00:33N 51°30' E 001°28'0 0.1
2015-May-03 23:33N 51°30' E 001°28'0 0.0
2015-May-03 22:34N 51°30' E 001°28'0 0.0
2015-May-03 21:34N 51°30' E 001°28'0 0.0
2015-May-03 20:34N 51°30' E 001°28'0 0.1
2015-May-03 19:34N 51°30' E 001°29'0 0.1
2015-May-03 18:34N 51°30' E 001°29'0 0.0
2015-May-03 17:33N 51°30' E 001°29'0 0.0
2015-May-03 16:33N 51°30' E 001°29'2 1.7
2015-May-03 15:34N 51°30' E 001°31'0 0.0
2015-May-03 14:33N 51°30' E 001°31'0 0.0
2015-May-03 13:34N 51°30' E 001°31'0 0.1
2015-May-03 12:33N 51°30' E 001°31'0 0.1
2015-May-03 11:34N 51°30' E 001°31'3 2.8
2015-May-03 10:33N 51°30' E 001°36'1111.1
2015-May-03 09:34N 51°30' E 001°53'1111.2
2015-May-03 08:33N 51°22' E 002°07'8 7.9
2015-May-03 07:32N 51°15' E 002°04'8 7.8
2015-May-03 06:34N 51°10' E 001°54'8 7.7
2015-May-03 05:33N 51°05' E 001°45'7 6.9
2015-May-03 04:33N 50°58' E 001°46'4 3.8
2015-May-03 03:32N 50°58' E 001°52'0 0.0
2015-May-03 02:32N 50°58' E 001°52'0 0.0
2015-May-03 00:20N 50°58' E 001°52'0 0.0
2015-May-02 23:29N 50°58' E 001°52'0 0.0
2015-May-02 22:33N 50°58' E 001°52'0 0.3
2015-May-02 21:33N 50°58' E 001°51'0 0.0
2015-May-02 20:33N 50°58' E 001°51'0 0.3
2015-May-02 19:32N 50°58' E 001°52'0 0.4
2015-May-02 18:34N 50°58' E 001°51'5 5.3
2015-May-02 17:33N 51°01' E 001°44'2 1.6
2015-May-02 16:34N 51°02' E 001°42'7 7.3
2015-May-02 15:33N 50°57' E 001°34'8 8.0
2015-May-02 14:33N 50°50' E 001°28'80 8.0
2015-May-02 04:32N 50°33' W 000°36'9 9.5
2015-May-02 03:34N 50°39' W 000°48'1010.2
2015-May-02 02:33N 50°43' W 001°02'1010.3
2015-May-02 01:34N 50°47' W 001°17'8 7.5
2015-May-02 00:32N 50°53' W 001°24'0 0.0
2015-May-01 23:32N 50°53' W 001°24'0 0.0
2015-May-01 22:32N 50°53' W 001°24'0 0.0
2015-May-01 21:31N 50°53' W 001°24'0 0.0
2015-May-01 20:33N 50°53' W 001°24'4 4.5
2015-May-01 19:33N 50°50' W 001°19'8 8.4
2015-May-01 18:33N 50°45' W 001°08'7 6.6
2015-May-01 17:33N 50°42' W 000°58'5 5.0
2015-May-01 16:33N 50°39' W 000°52'6 6.2
2015-May-01 15:33N 50°38' W 000°43'5 4.8
2015-May-01 14:33N 50°38' W 000°35'6 5.6
2015-May-01 13:33N 50°38' W 000°26'6 6.0
2015-May-01 12:33N 50°38' W 000°17'12 6.2
2015-May-01 10:33N 50°39' E 000°03'7 7.1
2015-May-01 09:33N 50°38' E 000°14'10 9.6
2015-May-01 08:33N 50°39' E 000°29'9 8.7
2015-May-01 07:34N 50°42' E 000°42'10 9.5
2015-May-01 06:33N 50°47' E 000°55'1210.7
2015-May-01 05:28N 50°55' E 001°09'1112.0
2015-May-01 04:34N 51°02' E 001°22'1212.1
2015-May-01 03:33N 51°11' E 001°35'1010.3
2015-May-01 02:33N 51°21' E 001°36'1010.2
2015-May-01 01:33N 51°31' E 001°32'0 0.4
2015-May-01 00:33N 51°32' E 001°31'0 0.0
2015-Apr-30 23:33N 51°32' E 001°31'0 0.1
2015-Apr-30 22:33N 51°32' E 001°31'2 2.0
2015-Apr-30 21:33N 51°30' E 001°29'0 0.0
2015-Apr-30 20:33N 51°30' E 001°29'0 0.0
2015-Apr-30 19:33N 51°30' E 001°29'0 0.0
2015-Apr-30 18:33N 51°30' E 001°29'0 0.0
2015-Apr-30 17:33N 51°30' E 001°29'0 0.0
2015-Apr-30 16:33N 51°30' E 001°29'0 0.0
2015-Apr-30 15:33N 51°30' E 001°29'0 0.0
2015-Apr-30 14:33N 51°30' E 001°29'0 0.0
2015-Apr-30 13:33N 51°30' E 001°29'0 0.0
2015-Apr-30 12:33N 51°30' E 001°29'5 4.8
2015-Apr-30 11:33N 51°28' E 001°22'1312.5
2015-Apr-30 10:33N 51°29' E 001°01'1111.4
2015-Apr-30 09:33N 51°30' E 000°43'6 6.3
2015-Apr-30 08:33N 51°31' E 000°33'0 0.0
2015-Apr-30 07:33N 51°31' E 000°33'0 0.0
2015-Apr-30 06:33N 51°31' E 000°33'0 0.0
2015-Apr-30 05:33N 51°31' E 000°33'0 0.0
2015-Apr-30 04:30N 51°31' E 000°33'0 0.0
2015-Apr-30 03:33N 51°31' E 000°33'0 0.0
2015-Apr-30 02:33N 51°31' E 000°33'0 0.0
2015-Apr-30 01:33N 51°31' E 000°33'0 0.0
2015-Apr-30 00:33N 51°31' E 000°33'0 0.0
2015-Apr-29 23:33N 51°31' E 000°33'0 0.0
2015-Apr-29 22:33N 51°31' E 000°33'0 0.0
2015-Apr-29 21:33N 51°31' E 000°33'0 0.0
2015-Apr-29 20:33N 51°31' E 000°33'0 0.0
2015-Apr-29 19:33N 51°31' E 000°33'0 0.0
2015-Apr-29 18:33N 51°31' E 000°33'0 0.0
2015-Apr-29 17:33N 51°31' E 000°33'0 0.0
2015-Apr-29 16:33N 51°31' E 000°33'0 0.0
2015-Apr-29 15:33N 51°31' E 000°33'0 0.0
2015-Apr-29 14:33N 51°31' E 000°33'0 0.0
2015-Apr-29 13:33N 51°31' E 000°33'0 0.0
2015-Apr-29 12:33N 51°31' E 000°33'0 0.0
2015-Apr-29 11:33N 51°31' E 000°33'0 0.0
2015-Apr-29 10:33N 51°31' E 000°33'0 0.0
2015-Apr-29 09:33N 51°31' E 000°33'0 0.2
2015-Apr-29 08:33N 51°30' E 000°33'1010.1
2015-Apr-29 07:33N 51°30' E 000°50'1211.6
2015-Apr-29 06:31N 51°29' E 001°09'1212.3
2015-Apr-29 05:33N 51°27' E 001°28'3 2.7
2015-Apr-29 04:32N 51°30' E 001°28'0 0.1
2015-Apr-29 03:26N 51°30' E 001°28'0 0.0
2015-Apr-29 02:32N 51°30' E 001°28'0 0.0
2015-Apr-29 01:32N 51°30' E 001°28'0 0.0
2015-Apr-29 00:32N 51°30' E 001°28'0 0.0
2015-Apr-28 23:32N 51°30' E 001°28'1 1.0
2015-Apr-28 22:32N 51°31' E 001°30'0 0.0
2015-Apr-28 21:32N 51°31' E 001°30'1 0.7
2015-Apr-28 20:32N 51°31' E 001°31'0 0.0
2015-Apr-28 19:32N 51°31' E 001°31'0 0.0
2015-Apr-28 18:32N 51°31' E 001°31'0 0.2
2015-Apr-28 17:32N 51°30' E 001°30'0 0.1
2015-Apr-28 16:32N 51°30' E 001°31'0 0.1
2015-Apr-28 15:32N 51°30' E 001°31'0 0.1
2015-Apr-28 14:32N 51°31' E 001°31'0 0.0
2015-Apr-28 13:29N 51°31' E 001°31'0 0.0
2015-Apr-28 12:32N 51°31' E 001°31'1 0.9
2015-Apr-28 11:33N 51°30' E 001°30'1 0.7
2015-Apr-28 10:31N 51°30' E 001°28'0 0.0
2015-Apr-28 09:33N 51°30' E 001°28'0 0.0
2015-Apr-28 08:34N 51°30' E 001°28'0 0.0
2015-Apr-28 07:33N 51°30' E 001°28'0 0.1
2015-Apr-28 06:33N 51°30' E 001°28'0 0.1
2015-Apr-28 05:33N 51°30' E 001°28'0 0.1
2015-Apr-28 04:33N 51°30' E 001°28'0 0.0
2015-Apr-28 03:33N 51°30' E 001°28'0 0.0
2015-Apr-28 02:33N 51°30' E 001°28'0 0.0
2015-Apr-28 01:33N 51°30' E 001°28'0 0.0
2015-Apr-28 00:33N 51°30' E 001°28'0 0.0
2015-Apr-27 23:33N 51°30' E 001°28'0 0.0
2015-Apr-27 22:33N 51°30' E 001°28'0 0.0
2015-Apr-27 21:33N 51°30' E 001°28'0 0.0
2015-Apr-27 20:33N 51°30' E 001°28'0 0.1
2015-Apr-27 19:33N 51°30' E 001°28'0 0.0
2015-Apr-27 18:33N 51°30' E 001°28'0 0.0
2015-Apr-27 17:33N 51°30' E 001°28'0 0.0
2015-Apr-27 16:33N 51°30' E 001°28'0 0.0
2015-Apr-27 15:33N 51°30' E 001°28'0 0.0
2015-Apr-27 14:34N 51°30' E 001°28'0 0.0
2015-Apr-27 13:33N 51°30' E 001°28'0 0.0
2015-Apr-27 12:33N 51°30' E 001°28'0 0.0
2015-Apr-27 11:33N 51°30' E 001°28'0 0.0
2015-Apr-27 10:33N 51°30' E 001°28'0 0.0
2015-Apr-27 09:33N 51°30' E 001°28'0 0.0
2015-Apr-27 08:33N 51°30' E 001°28'0 0.0
2015-Apr-27 07:33N 51°30' E 001°28'0 0.0
2015-Apr-27 06:33N 51°30' E 001°28'0 0.0
2015-Apr-27 05:34N 51°30' E 001°28'0 0.0
2015-Apr-27 04:33N 51°30' E 001°28'0 0.0
2015-Apr-27 03:33N 51°30' E 001°28'0 0.0
2015-Apr-27 02:33N 51°30' E 001°28'0 0.0
2015-Apr-27 01:33N 51°30' E 001°28'0 0.0
2015-Apr-27 00:33N 51°30' E 001°28'0 0.0
2015-Apr-26 23:33N 51°30' E 001°28'0 0.0
2015-Apr-26 22:33N 51°30' E 001°28'0 0.0
2015-Apr-26 21:33N 51°30' E 001°28'0 0.0
2015-Apr-26 20:33N 51°30' E 001°28'0 0.1
2015-Apr-26 19:33N 51°30' E 001°28'0 0.1
2015-Apr-26 18:33N 51°30' E 001°28'0 0.0
2015-Apr-26 17:33N 51°30' E 001°28'0 0.0
2015-Apr-26 16:33N 51°30' E 001°28'0 0.0
2015-Apr-26 15:33N 51°30' E 001°28'0 0.0
2015-Apr-26 14:33N 51°30' E 001°28'0 0.0
2015-Apr-26 13:33N 51°30' E 001°28'0 0.1
2015-Apr-26 12:33N 51°30' E 001°28'1111.2
2015-Apr-26 11:33N 51°28' E 001°46'10 9.7
2015-Apr-26 10:30N 51°25' E 002°01'7 7.1
2015-Apr-26 09:34N 51°19' E 002°07'5 5.1
2015-Apr-26 08:33N 51°14' E 002°03'5 5.2
2015-Apr-26 07:33N 51°11' E 001°56'7 6.0
2015-Apr-26 06:25N 51°07' E 001°47'6 6.5
2015-Apr-26 05:33N 51°02' E 001°45'6 5.7
2015-Apr-26 04:31N 50°58' E 001°52'  

Dump ship's entire track history